sensor_id;sensor_type;location;lat;lon;timestamp;pressure;altitude;pressure_sealevel;temperature;humidity
66857;BME280;53766;50.280;19.160;2023-05-15T00:00:46;97838.69;;;18.83;47.60
66857;BME280;53766;50.280;19.160;2023-05-15T00:03:27;97828.03;;;18.83;47.68
66857;BME280;53766;50.280;19.160;2023-05-15T00:05:55;97816.53;;;18.82;47.64
66857;BME280;53766;50.280;19.160;2023-05-15T00:08:23;97805.88;;;18.82;47.61
66857;BME280;53766;50.280;19.160;2023-05-15T00:10:50;97816.53;;;18.82;47.60
66857;BME280;53766;50.280;19.160;2023-05-15T00:13:28;97821.88;;;18.82;47.60
66857;BME280;53766;50.280;19.160;2023-05-15T00:15:56;97819.22;;;18.82;47.62
66857;BME280;53766;50.280;19.160;2023-05-15T00:18:23;97814.91;;;18.81;47.65
66857;BME280;53766;50.280;19.160;2023-05-15T00:20:51;97812.22;;;18.81;47.66
66857;BME280;53766;50.280;19.160;2023-05-15T00:23:19;97821.06;;;18.82;47.78
66857;BME280;53766;50.280;19.160;2023-05-15T00:25:47;97816.53;;;18.82;47.69
66857;BME280;53766;50.280;19.160;2023-05-15T00:28:14;97809.56;;;18.81;47.65
66857;BME280;53766;50.280;19.160;2023-05-15T00:30:41;97804.22;;;18.81;47.66
66857;BME280;53766;50.280;19.160;2023-05-15T00:33:09;97791.94;;;18.80;47.66
66857;BME280;53766;50.280;19.160;2023-05-15T00:35:37;97786.59;;;18.80;47.59
66857;BME280;53766;50.280;19.160;2023-05-15T00:38:04;97780.47;;;18.80;47.64
66857;BME280;53766;50.280;19.160;2023-05-15T00:40:33;97775.94;;;18.80;47.76
66857;BME280;53766;50.280;19.160;2023-05-15T00:43:02;97775.94;;;18.80;47.75
66857;BME280;53766;50.280;19.160;2023-05-15T00:45:30;97763.66;;;18.79;47.66
66857;BME280;53766;50.280;19.160;2023-05-15T00:47:59;97766.31;;;18.79;47.64
66857;BME280;53766;50.280;19.160;2023-05-15T00:50:28;97759.13;;;18.80;47.58
66857;BME280;53766;50.280;19.160;2023-05-15T00:52:56;97742.31;;;18.79;47.74
66857;BME280;53766;50.280;19.160;2023-05-15T00:55:25;97747.63;;;18.79;47.53
66857;BME280;53766;50.280;19.160;2023-05-15T00:57:53;97746.00;;;18.78;47.50
66857;BME280;53766;50.280;19.160;2023-05-15T01:00:23;97742.31;;;18.79;47.67
66857;BME280;53766;50.280;19.160;2023-05-15T01:02:51;97742.31;;;18.79;47.63
66857;BME280;53766;50.280;19.160;2023-05-15T01:05:19;97738.00;;;18.78;47.60
66857;BME280;53766;50.280;19.160;2023-05-15T01:08:02;97736.97;;;18.79;47.44
66857;BME280;53766;50.280;19.160;2023-05-15T01:10:33;97747.63;;;18.79;47.61
66857;BME280;53766;50.280;19.160;2023-05-15T01:13:01;97736.97;;;18.79;47.62
66857;BME280;53766;50.280;19.160;2023-05-15T01:15:30;97740.66;;;18.78;47.78
66857;BME280;53766;50.280;19.160;2023-05-15T01:17:57;97732.66;;;18.78;47.71
66857;BME280;53766;50.280;19.160;2023-05-15T01:20:25;97729.19;;;18.78;47.52
66857;BME280;53766;50.280;19.160;2023-05-15T01:23:08;97728.34;;;18.77;47.41
66857;BME280;53766;50.280;19.160;2023-05-15T01:28:32;97733.69;;;18.77;47.66
66857;BME280;53766;50.280;19.160;2023-05-15T01:31:14;97729.19;;;18.78;47.65
66857;BME280;53766;50.280;19.160;2023-05-15T01:33:45;97733.69;;;18.77;47.82
66857;BME280;53766;50.280;19.160;2023-05-15T01:36:26;97733.69;;;18.77;47.70
66857;BME280;53766;50.280;19.160;2023-05-15T01:39:00;97733.69;;;18.77;47.43
66857;BME280;53766;50.280;19.160;2023-05-15T01:41:34;97728.34;;;18.77;47.48
66857;BME280;53766;50.280;19.160;2023-05-15T01:44:06;97724.66;;;18.78;47.55
66857;BME280;53766;50.280;19.160;2023-05-15T01:46:37;97716.03;;;18.76;47.60
66857;BME280;53766;50.280;19.160;2023-05-15T01:49:08;97720.34;;;18.77;47.59
66857;BME280;53766;50.280;19.160;2023-05-15T01:51:38;97711.50;;;18.77;47.53
66857;BME280;53766;50.280;19.160;2023-05-15T01:54:07;97707.22;;;18.76;47.42
66857;BME280;53766;50.280;19.160;2023-05-15T01:56:35;97705.34;;;18.76;47.40
66857;BME280;53766;50.280;19.160;2023-05-15T01:59:03;97699.22;;;18.76;47.65
66857;BME280;53766;50.280;19.160;2023-05-15T02:01:32;97699.22;;;18.76;47.51
66857;BME280;53766;50.280;19.160;2023-05-15T02:04:01;97695.72;;;18.75;47.58
66857;BME280;53766;50.280;19.160;2023-05-15T02:06:30;97698.41;;;18.75;47.53
66857;BME280;53766;50.280;19.160;2023-05-15T02:09:00;97705.34;;;18.76;47.41
66857;BME280;53766;50.280;19.160;2023-05-15T02:11:28;97695.72;;;18.75;47.60
66857;BME280;53766;50.280;19.160;2023-05-15T02:13:56;97690.41;;;18.75;47.61
66857;BME280;53766;50.280;19.160;2023-05-15T02:16:24;97697.56;;;18.75;47.63
66857;BME280;53766;50.280;19.160;2023-05-15T02:18:51;97694.91;;;18.75;47.79
66857;BME280;53766;50.280;19.160;2023-05-15T02:21:19;97690.41;;;18.75;47.69
66857;BME280;53766;50.280;19.160;2023-05-15T02:23:47;97686.09;;;18.74;47.42
66857;BME280;53766;50.280;19.160;2023-05-15T02:29:15;97670.09;;;18.74;47.45
66857;BME280;53766;50.280;19.160;2023-05-15T02:31:51;97670.09;;;18.74;47.48
66857;BME280;53766;50.280;19.160;2023-05-15T02:36:59;97669.28;;;18.74;47.44
66857;BME280;53766;50.280;19.160;2023-05-15T02:39:28;97664.97;;;18.73;47.58
66857;BME280;53766;50.280;19.160;2023-05-15T02:41:56;97672.16;;;18.72;47.44
66857;BME280;53766;50.280;19.160;2023-05-15T02:44:24;97672.75;;;18.74;47.37
66857;BME280;53766;50.280;19.160;2023-05-15T02:46:53;97664.75;;;18.74;47.55
66857;BME280;53766;50.280;19.160;2023-05-15T02:49:20;97665.81;;;18.73;47.47
66857;BME280;53766;50.280;19.160;2023-05-15T02:51:49;97666.81;;;18.72;47.56
66857;BME280;53766;50.280;19.160;2023-05-15T02:54:17;97672.97;;;18.73;47.49
66857;BME280;53766;50.280;19.160;2023-05-15T02:56:44;97671.34;;;18.71;47.54
66857;BME280;53766;50.280;19.160;2023-05-15T02:59:12;97666.81;;;18.72;47.47
66857;BME280;53766;50.280;19.160;2023-05-15T03:01:45;97659.88;;;18.71;47.57
66857;BME280;53766;50.280;19.160;2023-05-15T03:04:13;97658.81;;;18.72;47.38
66857;BME280;53766;50.280;19.160;2023-05-15T03:06:41;97656.16;;;18.72;47.50
66857;BME280;53766;50.280;19.160;2023-05-15T03:09:08;97648.16;;;18.72;47.56
66857;BME280;53766;50.280;19.160;2023-05-15T03:11:36;97644.69;;;18.71;47.64
66857;BME280;53766;50.280;19.160;2023-05-15T03:14:03;97643.88;;;18.71;47.51
66857;BME280;53766;50.280;19.160;2023-05-15T03:16:31;97652.69;;;18.71;47.40
66857;BME280;53766;50.280;19.160;2023-05-15T03:18:58;97642.22;;;18.70;47.61
66857;BME280;53766;50.280;19.160;2023-05-15T03:21:25;97642.22;;;18.70;47.54
66857;BME280;53766;50.280;19.160;2023-05-15T03:23:53;97652.91;;;18.70;47.61
66857;BME280;53766;50.280;19.160;2023-05-15T03:26:21;97651.88;;;18.71;47.51
66857;BME280;53766;50.280;19.160;2023-05-15T03:28:49;97649.22;;;18.71;47.57
66857;BME280;53766;50.280;19.160;2023-05-15T03:31:17;97648.41;;;18.70;47.63
66857;BME280;53766;50.280;19.160;2023-05-15T03:33:45;97648.41;;;18.70;47.34
66857;BME280;53766;50.280;19.160;2023-05-15T03:36:16;97647.56;;;18.70;47.42
66857;BME280;53766;50.280;19.160;2023-05-15T03:38:43;97645.72;;;18.70;47.52
66857;BME280;53766;50.280;19.160;2023-05-15T03:41:11;97650.00;;;18.71;47.52
66857;BME280;53766;50.280;19.160;2023-05-15T03:43:38;97649.22;;;18.71;47.45
66857;BME280;53766;50.280;19.160;2023-05-15T03:46:06;97642.22;;;18.70;47.41
66857;BME280;53766;50.280;19.160;2023-05-15T03:48:33;97635.28;;;18.69;47.29
66857;BME280;53766;50.280;19.160;2023-05-15T03:51:01;97637.72;;;18.70;47.40
66857;BME280;53766;50.280;19.160;2023-05-15T03:53:29;97628.88;;;18.70;47.52
66857;BME280;53766;50.280;19.160;2023-05-15T03:55:56;97625.19;;;18.71;47.43
66857;BME280;53766;50.280;19.160;2023-05-15T03:58:23;97620.09;;;18.69;47.49
66857;BME280;53766;50.280;19.160;2023-05-15T04:00:51;97619.28;;;18.69;47.28
66857;BME280;53766;50.280;19.160;2023-05-15T04:03:19;97614.75;;;18.69;47.33
66857;BME280;53766;50.280;19.160;2023-05-15T04:05:46;97607.56;;;18.70;47.33
66857;BME280;53766;50.280;19.160;2023-05-15T04:08:16;97603.28;;;18.69;47.46
66857;BME280;53766;50.280;19.160;2023-05-15T04:10:43;97603.28;;;18.69;47.29
66857;BME280;53766;50.280;19.160;2023-05-15T04:13:11;97605.94;;;18.69;47.43
66857;BME280;53766;50.280;19.160;2023-05-15T04:15:39;97615.56;;;18.70;47.53
66857;BME280;53766;50.280;19.160;2023-05-15T04:18:06;97609.41;;;18.69;47.43
66857;BME280;53766;50.280;19.160;2023-05-15T04:20:34;97606.75;;;18.69;47.29
66857;BME280;53766;50.280;19.160;2023-05-15T04:23:01;97605.94;;;18.69;47.15
66857;BME280;53766;50.280;19.160;2023-05-15T04:25:30;97608.59;;;18.69;47.24
66857;BME280;53766;50.280;19.160;2023-05-15T04:27:58;97608.59;;;18.69;47.34
66857;BME280;53766;50.280;19.160;2023-05-15T04:30:25;97614.97;;;18.68;47.17
66857;BME280;53766;50.280;19.160;2023-05-15T04:33:09;97609.50;;;18.63;47.63
66857;BME280;53766;50.280;19.160;2023-05-15T04:35:37;97611.59;;;18.61;48.58
66857;BME280;53766;50.280;19.160;2023-05-15T04:38:05;97606.47;;;18.59;49.07
66857;BME280;53766;50.280;19.160;2023-05-15T04:40:33;97598.72;;;18.58;49.04
66857;BME280;53766;50.280;19.160;2023-05-15T04:43:00;97599.72;;;18.57;48.83
66857;BME280;53766;50.280;19.160;2023-05-15T04:45:30;97598.94;;;18.56;49.04
66857;BME280;53766;50.280;19.160;2023-05-15T04:47:57;97590.13;;;18.56;49.63
66857;BME280;53766;50.280;19.160;2023-05-15T04:50:25;97579.66;;;18.54;50.14
66857;BME280;53766;50.280;19.160;2023-05-15T04:52:53;97575.13;;;18.55;49.92
66857;BME280;53766;50.280;19.160;2023-05-15T04:55:20;97578.06;;;18.53;50.79
66857;BME280;53766;50.280;19.160;2023-05-15T04:57:48;97577.22;;;18.53;50.73
66857;BME280;53766;50.280;19.160;2023-05-15T05:00:15;97582.56;;;18.53;50.54
66857;BME280;53766;50.280;19.160;2023-05-15T05:02:43;97586.28;;;18.52;50.57
66857;BME280;53766;50.280;19.160;2023-05-15T05:05:10;97584.19;;;18.54;49.88
66857;BME280;53766;50.280;19.160;2023-05-15T05:07:40;97585.81;;;18.55;50.10
66857;BME280;53766;50.280;19.160;2023-05-15T05:10:10;97581.53;;;18.54;50.43
66857;BME280;53766;50.280;19.160;2023-05-15T05:12:37;97583.38;;;18.53;50.69
66857;BME280;53766;50.280;19.160;2023-05-15T05:15:05;97585.81;;;18.55;49.89
66857;BME280;53766;50.280;19.160;2023-05-15T05:17:32;97576.78;;;18.56;50.03
66857;BME280;53766;50.280;19.160;2023-05-15T05:20:00;97566.13;;;18.56;50.27
66857;BME280;53766;50.280;19.160;2023-05-15T05:22:29;97558.72;;;18.58;50.88
66857;BME280;53766;50.280;19.160;2023-05-15T05:24:56;97568.91;;;18.61;50.75
66857;BME280;53766;50.280;19.160;2023-05-15T05:27:23;97563.56;;;18.61;50.60
66857;BME280;53766;50.280;19.160;2023-05-15T05:29:51;97565.22;;;18.62;50.68
66857;BME280;53766;50.280;19.160;2023-05-15T05:32:20;97566.84;;;18.63;50.72
66857;BME280;53766;50.280;19.160;2023-05-15T05:34:47;97566.84;;;18.63;50.64
66857;BME280;53766;50.280;19.160;2023-05-15T05:37:14;97571.13;;;18.64;50.64
66857;BME280;53766;50.280;19.160;2023-05-15T05:39:42;97563.13;;;18.64;50.45
66857;BME280;53766;50.280;19.160;2023-05-15T05:42:09;97563.94;;;18.64;50.37
66857;BME280;53766;50.280;19.160;2023-05-15T05:44:37;97551.41;;;18.65;50.42
66857;BME280;53766;50.280;19.160;2023-05-15T05:47:04;97556.75;;;18.65;50.42
66857;BME280;53766;50.280;19.160;2023-05-15T05:49:32;97563.69;;;18.66;50.46
66857;BME280;53766;50.280;19.160;2023-05-15T05:52:17;97555.69;;;18.66;50.28
66857;BME280;53766;50.280;19.160;2023-05-15T05:54:45;97553.03;;;18.66;50.25
66857;BME280;53766;50.280;19.160;2023-05-15T05:57:14;97551.19;;;18.66;50.24
66857;BME280;53766;50.280;19.160;2023-05-15T05:59:41;97556.53;;;18.66;50.31
66857;BME280;53766;50.280;19.160;2023-05-15T06:02:09;97548.53;;;18.66;50.32
66857;BME280;53766;50.280;19.160;2023-05-15T06:04:37;97540.53;;;18.66;50.13
66857;BME280;53766;50.280;19.160;2023-05-15T06:07:05;97544.00;;;18.67;50.33
66857;BME280;53766;50.280;19.160;2023-05-15T06:09:33;97541.34;;;18.67;50.22
66857;BME280;53766;50.280;19.160;2023-05-15T06:12:00;97549.34;;;18.67;50.22
66857;BME280;53766;50.280;19.160;2023-05-15T06:14:30;97544.81;;;18.67;50.16
66857;BME280;53766;50.280;19.160;2023-05-15T06:16:59;97542.94;;;18.68;50.30
66857;BME280;53766;50.280;19.160;2023-05-15T06:19:27;97540.28;;;18.68;50.37
66857;BME280;53766;50.280;19.160;2023-05-15T06:21:55;97547.25;;;18.69;50.03
66857;BME280;53766;50.280;19.160;2023-05-15T06:24:22;97545.63;;;18.68;50.20
66857;BME280;53766;50.280;19.160;2023-05-15T06:26:49;97534.94;;;18.68;50.00
66857;BME280;53766;50.280;19.160;2023-05-15T06:29:18;97533.94;;;18.69;50.18
66857;BME280;53766;50.280;19.160;2023-05-15T06:31:46;97532.88;;;18.70;49.96
66857;BME280;53766;50.280;19.160;2023-05-15T06:34:13;97526.50;;;18.71;49.91
66857;BME280;53766;50.280;19.160;2023-05-15T06:36:41;97524.66;;;18.71;49.91
66857;BME280;53766;50.280;19.160;2023-05-15T06:39:08;97528.13;;;18.72;49.82
66857;BME280;53766;50.280;19.160;2023-05-15T06:41:39;97521.97;;;18.71;49.87
66857;BME280;53766;50.280;19.160;2023-05-15T06:44:06;97531.38;;;18.74;50.03
66857;BME280;53766;50.280;19.160;2023-05-15T06:46:34;97520.13;;;18.72;49.95
66857;BME280;53766;50.280;19.160;2023-05-15T06:49:01;97531.84;;;18.71;49.79
66857;BME280;53766;50.280;19.160;2023-05-15T06:51:29;97528.13;;;18.72;49.85
66857;BME280;53766;50.280;19.160;2023-05-15T06:53:57;97521.97;;;18.71;49.85
66857;BME280;53766;50.280;19.160;2023-05-15T06:56:24;97531.38;;;18.74;50.00
66857;BME280;53766;50.280;19.160;2023-05-15T06:58:51;97521.75;;;18.73;49.87
66857;BME280;53766;50.280;19.160;2023-05-15T07:01:19;97525.47;;;18.72;49.88
66857;BME280;53766;50.280;19.160;2023-05-15T07:03:47;97528.13;;;18.72;49.85
66857;BME280;53766;50.280;19.160;2023-05-15T07:06:14;97535.91;;;18.74;49.73
66857;BME280;53766;50.280;19.160;2023-05-15T07:08:42;97539.59;;;18.73;49.79
66857;BME280;53766;50.280;19.160;2023-05-15T07:11:09;97534.25;;;18.73;49.77
66857;BME280;53766;50.280;19.160;2023-05-15T07:13:37;97536.72;;;18.74;49.74
66857;BME280;53766;50.280;19.160;2023-05-15T07:16:04;97534.25;;;18.73;49.60
66857;BME280;53766;50.280;19.160;2023-05-15T07:18:32;97537.78;;;18.73;49.76
66857;BME280;53766;50.280;19.160;2023-05-15T07:21:00;97534.03;;;18.74;49.78
66857;BME280;53766;50.280;19.160;2023-05-15T07:23:27;97536.72;;;18.74;49.75
66857;BME280;53766;50.280;19.160;2023-05-15T07:25:54;97534.03;;;18.74;49.69
66857;BME280;53766;50.280;19.160;2023-05-15T07:28:22;97536.72;;;18.74;49.53
66857;BME280;53766;50.280;19.160;2023-05-15T07:30:49;97526.03;;;18.74;49.46
66857;BME280;53766;50.280;19.160;2023-05-15T07:33:17;97526.03;;;18.74;49.62
66857;BME280;53766;50.280;19.160;2023-05-15T07:35:45;97526.03;;;18.74;49.59
66857;BME280;53766;50.280;19.160;2023-05-15T07:38:12;97531.38;;;18.74;49.63
66857;BME280;53766;50.280;19.160;2023-05-15T07:40:40;97531.38;;;18.74;49.50
66857;BME280;53766;50.280;19.160;2023-05-15T07:43:07;97529.53;;;18.75;49.51
66857;BME280;53766;50.280;19.160;2023-05-15T07:45:35;97539.38;;;18.74;49.55
66857;BME280;53766;50.280;19.160;2023-05-15T07:48:13;97538.34;;;18.75;49.63
66857;BME280;53766;50.280;19.160;2023-05-15T07:50:41;97534.84;;;18.75;49.43
66857;BME280;53766;50.280;19.160;2023-05-15T07:53:09;97532.19;;;18.75;49.55
66857;BME280;53766;50.280;19.160;2023-05-15T07:55:37;97535.69;;;18.75;49.35
66857;BME280;53766;50.280;19.160;2023-05-15T07:58:04;97532.19;;;18.75;49.43
66857;BME280;53766;50.280;19.160;2023-05-15T08:00:32;97535.69;;;18.75;49.35
66857;BME280;53766;50.280;19.160;2023-05-15T08:03:00;97537.53;;;18.75;49.50
66857;BME280;53766;50.280;19.160;2023-05-15T08:05:27;97543.69;;;18.75;49.46
66857;BME280;53766;50.280;19.160;2023-05-15T08:07:56;97536.72;;;18.74;49.50
66857;BME280;53766;50.280;19.160;2023-05-15T08:10:23;97541.03;;;18.75;49.29
66857;BME280;53766;50.280;19.160;2023-05-15T08:12:51;97543.69;;;18.75;49.42
66857;BME280;53766;50.280;19.160;2023-05-15T08:15:18;97543.69;;;18.75;49.32
66857;BME280;53766;50.280;19.160;2023-05-15T08:17:46;97542.84;;;18.75;49.37
66857;BME280;53766;50.280;19.160;2023-05-15T08:20:13;97540.19;;;18.75;49.28
66857;BME280;53766;50.280;19.160;2023-05-15T08:22:41;97544.72;;;18.74;49.37
66857;BME280;53766;50.280;19.160;2023-05-15T08:25:08;97546.34;;;18.75;49.40
66857;BME280;53766;50.280;19.160;2023-05-15T08:27:36;97545.53;;;18.75;49.32
66857;BME280;53766;50.280;19.160;2023-05-15T08:30:04;97543.69;;;18.75;49.44
66857;BME280;53766;50.280;19.160;2023-05-15T08:32:31;97553.31;;;18.76;49.21
66857;BME280;53766;50.280;19.160;2023-05-15T08:34:59;97550.63;;;18.76;49.36
66857;BME280;53766;50.280;19.160;2023-05-15T08:37:26;97545.31;;;18.76;49.19
66857;BME280;53766;50.280;19.160;2023-05-15T08:39:54;97546.94;;;18.77;49.12
66857;BME280;53766;50.280;19.160;2023-05-15T08:42:49;97547.78;;;18.78;49.21
66857;BME280;53766;50.280;19.160;2023-05-15T08:45:19;97548.59;;;18.78;49.12
66857;BME280;53766;50.280;19.160;2023-05-15T08:47:46;97548.59;;;18.78;49.15
66857;BME280;53766;50.280;19.160;2023-05-15T08:50:15;97542.22;;;18.79;49.31
66857;BME280;53766;50.280;19.160;2023-05-15T08:52:44;97537.91;;;18.78;49.04
66857;BME280;53766;50.280;19.160;2023-05-15T08:55:14;97544.91;;;18.79;49.01
66857;BME280;53766;50.280;19.160;2023-05-15T08:57:42;97541.19;;;18.80;49.11
66857;BME280;53766;50.280;19.160;2023-05-15T09:00:11;97541.19;;;18.80;49.21
66857;BME280;53766;50.280;19.160;2023-05-15T09:02:40;97541.19;;;18.80;49.03
66857;BME280;53766;50.280;19.160;2023-05-15T09:05:09;97535.84;;;18.80;49.19
66857;BME280;53766;50.280;19.160;2023-05-15T09:07:39;97538.50;;;18.80;49.11
66857;BME280;53766;50.280;19.160;2023-05-15T09:10:08;97541.97;;;18.81;49.13
66857;BME280;53766;50.280;19.160;2023-05-15T09:12:42;97543.63;;;18.82;49.18
66857;BME280;53766;50.280;19.160;2023-05-15T09:15:14;97542.78;;;18.81;49.20
66857;BME280;53766;50.280;19.160;2023-05-15T09:17:44;97548.97;;;18.82;48.94
66857;BME280;53766;50.280;19.160;2023-05-15T09:22:52;97558.78;;;18.81;48.91
66857;BME280;53766;50.280;19.160;2023-05-15T09:25:39;97556.97;;;18.82;49.00
66857;BME280;53766;50.280;19.160;2023-05-15T09:28:09;97561.47;;;18.81;48.90
66857;BME280;53766;50.280;19.160;2023-05-15T09:30:37;97557.78;;;18.82;49.01
66857;BME280;53766;50.280;19.160;2023-05-15T09:33:05;97559.63;;;18.82;48.98
66857;BME280;53766;50.280;19.160;2023-05-15T09:35:38;97551.63;;;18.82;49.04
66857;BME280;53766;50.280;19.160;2023-05-15T09:38:10;97557.53;;;18.84;49.04
66857;BME280;53766;50.280;19.160;2023-05-15T09:40:38;97560.44;;;18.82;49.05
66857;BME280;53766;50.280;19.160;2023-05-15T09:43:09;97555.09;;;18.82;49.08
66857;BME280;53766;50.280;19.160;2023-05-15T09:45:38;97561.25;;;18.83;48.94
66857;BME280;53766;50.280;19.160;2023-05-15T09:48:06;97569.25;;;18.83;48.95
66857;BME280;53766;50.280;19.160;2023-05-15T09:50:36;97572.72;;;18.83;48.95
66857;BME280;53766;50.280;19.160;2023-05-15T09:53:04;97572.72;;;18.83;48.97
66857;BME280;53766;50.280;19.160;2023-05-15T09:55:33;97581.78;;;18.82;48.87
66857;BME280;53766;50.280;19.160;2023-05-15T09:58:12;97581.78;;;18.82;48.95
66857;BME280;53766;50.280;19.160;2023-05-15T10:00:41;97583.38;;;18.83;48.88
66857;BME280;53766;50.280;19.160;2023-05-15T10:03:18;97575.38;;;18.83;48.81
66857;BME280;53766;50.280;19.160;2023-05-15T10:05:48;97578.88;;;18.84;48.85
66857;BME280;53766;50.280;19.160;2023-05-15T10:08:25;97578.88;;;18.84;48.81
66857;BME280;53766;50.280;19.160;2023-05-15T10:10:54;97575.97;;;18.85;48.75
66857;BME280;53766;50.280;19.160;2023-05-15T10:13:25;97575.16;;;18.85;48.86
66857;BME280;53766;50.280;19.160;2023-05-15T10:15:54;97575.97;;;18.85;48.73
66857;BME280;53766;50.280;19.160;2023-05-15T10:18:23;97585.63;;;18.86;48.76
66857;BME280;53766;50.280;19.160;2023-05-15T10:20:53;97586.66;;;18.85;48.84
66857;BME280;53766;50.280;19.160;2023-05-15T10:23:21;97575.97;;;18.85;48.72
66857;BME280;53766;50.280;19.160;2023-05-15T10:25:58;97579.22;;;18.87;48.82
66857;BME280;53766;50.280;19.160;2023-05-15T10:28:29;97587.47;;;18.86;48.83
66857;BME280;53766;50.280;19.160;2023-05-15T10:31:01;97587.47;;;18.86;48.56
66857;BME280;53766;50.280;19.160;2023-05-15T10:33:29;97593.63;;;18.86;48.77
66857;BME280;53766;50.280;19.160;2023-05-15T10:35:58;97596.28;;;18.86;48.74
66857;BME280;53766;50.280;19.160;2023-05-15T10:38:26;97598.16;;;18.86;48.75
66857;BME280;53766;50.280;19.160;2023-05-15T10:40:56;97596.28;;;18.86;48.65
66857;BME280;53766;50.280;19.160;2023-05-15T10:43:43;97597.31;;;18.85;48.53
66857;BME280;53766;50.280;19.160;2023-05-15T10:46:12;97602.66;;;18.85;48.70
66857;BME280;53766;50.280;19.160;2023-05-15T10:48:41;97591.19;;;18.85;48.78
66857;BME280;53766;50.280;19.160;2023-05-15T10:51:30;97595.69;;;18.84;48.65
66857;BME280;53766;50.280;19.160;2023-05-15T10:54:03;97585.03;;;18.84;48.64
66857;BME280;53766;50.280;19.160;2023-05-15T10:56:32;97590.38;;;18.84;48.68
66857;BME280;53766;50.280;19.160;2023-05-15T10:59:07;97591.97;;;18.85;48.45
66857;BME280;53766;50.280;19.160;2023-05-15T11:01:37;97601.84;;;18.85;48.72
66857;BME280;53766;50.280;19.160;2023-05-15T11:04:13;97590.97;;;18.86;48.65
66857;BME280;53766;50.280;19.160;2023-05-15T11:06:43;97587.00;;;18.89;48.54
66857;BME280;53766;50.280;19.160;2023-05-15T11:14:18;97582.47;;;18.89;48.58
66857;BME280;53766;50.280;19.160;2023-05-15T11:19:32;97567.66;;;18.94;48.57
66857;BME280;53766;50.280;19.160;2023-05-15T11:22:20;97563.97;;;18.95;48.47
66857;BME280;53766;50.280;19.160;2023-05-15T11:25:04;97575.44;;;18.95;48.38
66857;BME280;53766;50.280;19.160;2023-05-15T11:27:38;97570.91;;;18.96;48.72
66857;BME280;53766;50.280;19.160;2023-05-15T11:30:14;97558.63;;;18.95;48.52
66857;BME280;53766;50.280;19.160;2023-05-15T11:35:22;97550.94;;;18.98;48.46
66857;BME280;53766;50.280;19.160;2023-05-15T11:37:57;97554.44;;;18.99;48.41
66857;BME280;53766;50.280;19.160;2023-05-15T11:40:27;97551.91;;;19.04;48.41
66857;BME280;53766;50.280;19.160;2023-05-15T11:42:59;97544.22;;;19.07;48.32
66857;BME280;53766;50.280;19.160;2023-05-15T11:45:30;97540.75;;;19.07;48.31
66857;BME280;53766;50.280;19.160;2023-05-15T11:48:01;97549.81;;;19.06;48.53
66857;BME280;53766;50.280;19.160;2023-05-15T11:50:31;97549.81;;;19.06;48.43
66857;BME280;53766;50.280;19.160;2023-05-15T11:53:04;97547.97;;;19.06;48.49
66857;BME280;53766;50.280;19.160;2023-05-15T11:55:33;97549.34;;;19.09;48.38
66857;BME280;53766;50.280;19.160;2023-05-15T11:58:02;97544.59;;;19.11;48.49
66857;BME280;53766;50.280;19.160;2023-05-15T12:00:30;97544.59;;;19.11;48.27
66857;BME280;53766;50.280;19.160;2023-05-15T12:02:58;97543.78;;;19.10;48.44
66857;BME280;53766;50.280;19.160;2023-05-15T12:05:26;97545.66;;;19.10;48.39
66857;BME280;53766;50.280;19.160;2023-05-15T12:07:53;97541.34;;;19.09;48.39
66857;BME280;53766;50.280;19.160;2023-05-15T12:10:20;97536.00;;;19.09;48.37
66857;BME280;53766;50.280;19.160;2023-05-15T12:12:48;97541.34;;;19.09;48.41
66857;BME280;53766;50.280;19.160;2023-05-15T12:15:16;97545.06;;;19.08;48.54
66857;BME280;53766;50.280;19.160;2023-05-15T12:17:44;97547.72;;;19.08;48.26
66857;BME280;53766;50.280;19.160;2023-05-15T12:20:17;97537.06;;;19.08;48.51
66857;BME280;53766;50.280;19.160;2023-05-15T12:22:44;97545.88;;;19.08;48.57
66857;BME280;53766;50.280;19.160;2023-05-15T12:25:14;97544.00;;;19.09;48.38
66857;BME280;53766;50.280;19.160;2023-05-15T12:27:42;97536.81;;;19.09;48.24
66857;BME280;53766;50.280;19.160;2023-05-15T12:30:10;97544.00;;;19.09;48.43
66857;BME280;53766;50.280;19.160;2023-05-15T12:32:39;97544.00;;;19.09;48.51
66857;BME280;53766;50.280;19.160;2023-05-15T12:35:08;97533.34;;;19.09;48.42
66857;BME280;53766;50.280;19.160;2023-05-15T12:37:38;97537.88;;;19.08;48.39
66857;BME280;53766;50.280;19.160;2023-05-15T12:40:06;97531.72;;;19.08;48.33
66857;BME280;53766;50.280;19.160;2023-05-15T12:42:39;97531.72;;;19.08;48.31
66857;BME280;53766;50.280;19.160;2023-05-15T12:45:15;97532.53;;;19.08;48.31
66857;BME280;53766;50.280;19.160;2023-05-15T12:47:44;97535.78;;;19.10;48.44
66857;BME280;53766;50.280;19.160;2023-05-15T12:50:20;97537.16;;;19.13;48.19
66857;BME280;53766;50.280;19.160;2023-05-15T12:52:52;97530.81;;;19.14;48.50
66857;BME280;53766;50.280;19.160;2023-05-15T12:55:33;97521.25;;;19.18;48.32
66857;BME280;53766;50.280;19.160;2023-05-15T12:58:06;97521.53;;;19.17;48.35
66857;BME280;53766;50.280;19.160;2023-05-15T13:00:36;97523.94;;;19.18;48.11
66857;BME280;53766;50.280;19.160;2023-05-15T13:03:03;97525.59;;;19.19;48.04
66857;BME280;53766;50.280;19.160;2023-05-15T13:05:33;97532.53;;;19.20;48.02
66857;BME280;53766;50.280;19.160;2023-05-15T13:08:02;97530.69;;;19.21;48.09
66857;BME280;53766;50.280;19.160;2023-05-15T13:10:32;97528.84;;;19.21;48.19
66857;BME280;53766;50.280;19.160;2023-05-15T13:13:00;97540.53;;;19.20;47.77
66857;BME280;53766;50.280;19.160;2023-05-15T13:15:32;97542.19;;;19.21;48.20
66857;BME280;53766;50.280;19.160;2023-05-15T13:18:13;97529.84;;;19.20;48.09
66857;BME280;53766;50.280;19.160;2023-05-15T13:20:46;97526.38;;;19.20;48.04
66857;BME280;53766;50.280;19.160;2023-05-15T13:23:17;97534.41;;;19.20;48.17